Adams Mills, Ohio
Current Conditions -  °F | °C
As of 5:53 PM on Tuesday 21 Oct 2014 (Local Time) from KZZV Reporting Station
Overcast Overcast  
Wind Chill:   Ceiling: 3000
Heat Index:   Visibility: 10mi
Dew Point:   Wind: 9mph
Humidity: 74%   Direction: 330°NNW
Pressure: 30.03"   Gusts: NA
Location:  40.1482°N, 82.0354°W
Report Text: KZZV 212153Z AUTO 33008KT 10SM BKN030 OVC036 09/04 A3003 RMK AO2 SLP171 T00890044
Loading
Personal Weather Stations






























Interactive Weather Map
Tropical Storm Tracking
New forecast layout! Learn more

10-Day Weather Forecast

Advertisements
Track Severe Weather on mobile